sensor_id;sensor_type;location;lat;lon;timestamp;temperature;humidity
13850;DHT22;6995;52.618;13.488;2024-02-26T00:01:26;3.30;99.90
13850;DHT22;6995;52.618;13.488;2024-02-26T00:03:52;3.30;99.90
13850;DHT22;6995;52.618;13.488;2024-02-26T00:06:19;3.20;99.90
13850;DHT22;6995;52.618;13.488;2024-02-26T00:08:45;3.10;99.90
13850;DHT22;6995;52.618;13.488;2024-02-26T00:11:11;3.10;99.90
13850;DHT22;6995;52.618;13.488;2024-02-26T00:13:36;3.00;99.90
13850;DHT22;6995;52.618;13.488;2024-02-26T00:16:05;3.00;99.90
13850;DHT22;6995;52.618;13.488;2024-02-26T00:18:33;3.00;99.90
13850;DHT22;6995;52.618;13.488;2024-02-26T00:20:58;3.00;99.90
13850;DHT22;6995;52.618;13.488;2024-02-26T00:23:24;3.00;1.00
13850;DHT22;6995;52.618;13.488;2024-02-26T00:25:49;3.00;99.90
13850;DHT22;6995;52.618;13.488;2024-02-26T00:28:15;2.90;1.00
13850;DHT22;6995;52.618;13.488;2024-02-26T00:30:41;3.00;1.00
13850;DHT22;6995;52.618;13.488;2024-02-26T00:33:06;2.90;1.00
13850;DHT22;6995;52.618;13.488;2024-02-26T00:35:32;2.90;1.00
13850;DHT22;6995;52.618;13.488;2024-02-26T00:37:58;3.00;1.00
13850;DHT22;6995;52.618;13.488;2024-02-26T00:40:24;3.10;1.00
13850;DHT22;6995;52.618;13.488;2024-02-26T00:42:49;3.00;1.00
13850;DHT22;6995;52.618;13.488;2024-02-26T00:45:15;3.00;99.90
13850;DHT22;6995;52.618;13.488;2024-02-26T00:47:42;2.90;99.90
13850;DHT22;6995;52.618;13.488;2024-02-26T00:50:09;2.90;99.90
13850;DHT22;6995;52.618;13.488;2024-02-26T00:52:35;2.90;99.90
13850;DHT22;6995;52.618;13.488;2024-02-26T00:55:02;2.90;1.00
13850;DHT22;6995;52.618;13.488;2024-02-26T00:57:27;2.90;99.90
13850;DHT22;6995;52.618;13.488;2024-02-26T00:59:53;2.80;99.90
13850;DHT22;6995;52.618;13.488;2024-02-26T01:02:21;2.80;99.90
13850;DHT22;6995;52.618;13.488;2024-02-26T01:04:47;2.80;99.90
13850;DHT22;6995;52.618;13.488;2024-02-26T01:07:13;2.90;99.90
13850;DHT22;6995;52.618;13.488;2024-02-26T01:09:38;2.90;1.00
13850;DHT22;6995;52.618;13.488;2024-02-26T01:12:04;2.90;99.90
13850;DHT22;6995;52.618;13.488;2024-02-26T01:14:30;2.90;1.00
13850;DHT22;6995;52.618;13.488;2024-02-26T01:16:55;2.90;1.00
13850;DHT22;6995;52.618;13.488;2024-02-26T01:19:21;2.90;1.00
13850;DHT22;6995;52.618;13.488;2024-02-26T01:21:47;2.80;1.00
13850;DHT22;6995;52.618;13.488;2024-02-26T01:24:12;2.80;1.00
13850;DHT22;6995;52.618;13.488;2024-02-26T01:26:38;2.80;1.00
13850;DHT22;6995;52.618;13.488;2024-02-26T01:29:04;2.70;1.00
13850;DHT22;6995;52.618;13.488;2024-02-26T01:31:30;2.70;1.00
13850;DHT22;6995;52.618;13.488;2024-02-26T01:33:55;2.70;1.00
13850;DHT22;6995;52.618;13.488;2024-02-26T01:36:21;2.70;1.00
13850;DHT22;6995;52.618;13.488;2024-02-26T01:38:47;2.70;1.00
13850;DHT22;6995;52.618;13.488;2024-02-26T01:41:14;2.60;1.00
13850;DHT22;6995;52.618;13.488;2024-02-26T01:43:40;2.60;1.00
13850;DHT22;6995;52.618;13.488;2024-02-26T01:46:07;2.50;99.90
13850;DHT22;6995;52.618;13.488;2024-02-26T01:48:36;2.50;1.00
13850;DHT22;6995;52.618;13.488;2024-02-26T01:51:02;2.60;1.00
13850;DHT22;6995;52.618;13.488;2024-02-26T01:53:27;2.50;1.00
13850;DHT22;6995;52.618;13.488;2024-02-26T01:55:53;2.50;1.00
13850;DHT22;6995;52.618;13.488;2024-02-26T01:58:19;2.40;1.00
13850;DHT22;6995;52.618;13.488;2024-02-26T02:00:45;2.40;1.00
13850;DHT22;6995;52.618;13.488;2024-02-26T02:03:11;2.30;1.00
13850;DHT22;6995;52.618;13.488;2024-02-26T02:05:37;2.30;1.00
13850;DHT22;6995;52.618;13.488;2024-02-26T02:08:10;2.40;1.00
13850;DHT22;6995;52.618;13.488;2024-02-26T02:10:37;2.40;1.00
13850;DHT22;6995;52.618;13.488;2024-02-26T02:13:03;2.30;1.00
13850;DHT22;6995;52.618;13.488;2024-02-26T02:15:29;2.20;1.00
13850;DHT22;6995;52.618;13.488;2024-02-26T02:17:55;2.20;1.00
13850;DHT22;6995;52.618;13.488;2024-02-26T02:20:26;2.20;1.00
13850;DHT22;6995;52.618;13.488;2024-02-26T02:22:53;2.20;1.00
13850;DHT22;6995;52.618;13.488;2024-02-26T02:25:18;2.20;1.00
13850;DHT22;6995;52.618;13.488;2024-02-26T02:27:44;2.10;1.00
13850;DHT22;6995;52.618;13.488;2024-02-26T02:30:10;2.10;1.00
13850;DHT22;6995;52.618;13.488;2024-02-26T02:32:38;2.10;1.00
13850;DHT22;6995;52.618;13.488;2024-02-26T02:35:05;2.10;1.00
13850;DHT22;6995;52.618;13.488;2024-02-26T02:37:31;2.00;1.00
13850;DHT22;6995;52.618;13.488;2024-02-26T02:39:56;2.00;99.90
13850;DHT22;6995;52.618;13.488;2024-02-26T02:42:23;2.00;1.40
13850;DHT22;6995;52.618;13.488;2024-02-26T02:44:49;2.00;99.90
13850;DHT22;6995;52.618;13.488;2024-02-26T02:47:14;2.00;1.40
13850;DHT22;6995;52.618;13.488;2024-02-26T02:49:40;2.00;99.90
13850;DHT22;6995;52.618;13.488;2024-02-26T02:52:06;2.00;1.00
13850;DHT22;6995;52.618;13.488;2024-02-26T02:54:31;2.00;1.00
13850;DHT22;6995;52.618;13.488;2024-02-26T02:56:57;2.10;1.00
13850;DHT22;6995;52.618;13.488;2024-02-26T02:59:23;2.10;1.00
13850;DHT22;6995;52.618;13.488;2024-02-26T03:01:48;2.20;1.00
13850;DHT22;6995;52.618;13.488;2024-02-26T03:04:14;2.20;1.00
13850;DHT22;6995;52.618;13.488;2024-02-26T03:06:40;2.20;1.00
13850;DHT22;6995;52.618;13.488;2024-02-26T03:09:06;2.30;1.00
13850;DHT22;6995;52.618;13.488;2024-02-26T03:11:37;2.30;1.00
13850;DHT22;6995;52.618;13.488;2024-02-26T03:14:04;2.30;1.00
13850;DHT22;6995;52.618;13.488;2024-02-26T03:16:30;2.30;1.00
13850;DHT22;6995;52.618;13.488;2024-02-26T03:18:56;2.30;1.00
13850;DHT22;6995;52.618;13.488;2024-02-26T03:21:21;2.30;1.00
13850;DHT22;6995;52.618;13.488;2024-02-26T03:23:47;2.30;1.00
13850;DHT22;6995;52.618;13.488;2024-02-26T03:26:12;2.30;1.00
13850;DHT22;6995;52.618;13.488;2024-02-26T03:28:40;2.20;1.00
13850;DHT22;6995;52.618;13.488;2024-02-26T03:31:06;2.20;1.00
13850;DHT22;6995;52.618;13.488;2024-02-26T03:33:31;2.20;1.00
13850;DHT22;6995;52.618;13.488;2024-02-26T03:35:57;2.10;1.00
13850;DHT22;6995;52.618;13.488;2024-02-26T03:38:22;2.10;1.00
13850;DHT22;6995;52.618;13.488;2024-02-26T03:40:48;2.00;1.00
13850;DHT22;6995;52.618;13.488;2024-02-26T03:43:14;2.00;1.00
13850;DHT22;6995;52.618;13.488;2024-02-26T03:45:40;1.90;1.00
13850;DHT22;6995;52.618;13.488;2024-02-26T03:48:06;1.90;1.00
13850;DHT22;6995;52.618;13.488;2024-02-26T03:50:31;1.90;1.00
13850;DHT22;6995;52.618;13.488;2024-02-26T03:52:57;1.90;1.00
13850;DHT22;6995;52.618;13.488;2024-02-26T03:55:23;1.90;1.00
13850;DHT22;6995;52.618;13.488;2024-02-26T03:57:53;1.90;1.00
13850;DHT22;6995;52.618;13.488;2024-02-26T04:00:19;1.80;1.00
13850;DHT22;6995;52.618;13.488;2024-02-26T04:02:47;1.80;1.00
13850;DHT22;6995;52.618;13.488;2024-02-26T04:05:13;1.80;1.00
13850;DHT22;6995;52.618;13.488;2024-02-26T04:07:39;1.90;1.00
13850;DHT22;6995;52.618;13.488;2024-02-26T04:10:12;1.90;1.00
13850;DHT22;6995;52.618;13.488;2024-02-26T04:12:41;1.90;1.00
13850;DHT22;6995;52.618;13.488;2024-02-26T04:15:10;2.00;1.00
13850;DHT22;6995;52.618;13.488;2024-02-26T04:17:37;2.00;1.00
13850;DHT22;6995;52.618;13.488;2024-02-26T04:20:04;2.00;1.00
13850;DHT22;6995;52.618;13.488;2024-02-26T04:22:31;1.90;1.00
13850;DHT22;6995;52.618;13.488;2024-02-26T04:24:57;1.90;1.00
13850;DHT22;6995;52.618;13.488;2024-02-26T04:27:23;1.90;1.00
13850;DHT22;6995;52.618;13.488;2024-02-26T04:29:48;1.90;1.00
13850;DHT22;6995;52.618;13.488;2024-02-26T04:32:14;1.80;1.00
13850;DHT22;6995;52.618;13.488;2024-02-26T04:34:39;1.80;99.90
13850;DHT22;6995;52.618;13.488;2024-02-26T04:37:05;1.80;99.90
13850;DHT22;6995;52.618;13.488;2024-02-26T04:39:31;1.80;99.90
13850;DHT22;6995;52.618;13.488;2024-02-26T04:41:56;1.70;99.90
13850;DHT22;6995;52.618;13.488;2024-02-26T04:44:22;1.60;99.90
13850;DHT22;6995;52.618;13.488;2024-02-26T04:46:47;1.60;99.90
13850;DHT22;6995;52.618;13.488;2024-02-26T04:49:13;1.50;99.90
13850;DHT22;6995;52.618;13.488;2024-02-26T04:51:39;1.50;99.90
13850;DHT22;6995;52.618;13.488;2024-02-26T04:54:04;1.50;99.90
13850;DHT22;6995;52.618;13.488;2024-02-26T04:56:30;1.50;99.90
13850;DHT22;6995;52.618;13.488;2024-02-26T04:58:55;1.50;99.90
13850;DHT22;6995;52.618;13.488;2024-02-26T05:01:21;1.50;99.90
13850;DHT22;6995;52.618;13.488;2024-02-26T05:03:47;1.50;99.90
13850;DHT22;6995;52.618;13.488;2024-02-26T05:06:12;1.50;99.90
13850;DHT22;6995;52.618;13.488;2024-02-26T05:08:38;1.60;99.90
13850;DHT22;6995;52.618;13.488;2024-02-26T05:11:04;1.60;99.90
13850;DHT22;6995;52.618;13.488;2024-02-26T05:13:30;1.50;99.90
13850;DHT22;6995;52.618;13.488;2024-02-26T05:15:56;1.50;99.90
13850;DHT22;6995;52.618;13.488;2024-02-26T05:18:25;1.50;99.90
13850;DHT22;6995;52.618;13.488;2024-02-26T05:20:50;1.50;99.90
13850;DHT22;6995;52.618;13.488;2024-02-26T05:23:16;1.70;1.00
13850;DHT22;6995;52.618;13.488;2024-02-26T05:25:41;1.70;1.00
13850;DHT22;6995;52.618;13.488;2024-02-26T05:28:07;1.80;1.00
13850;DHT22;6995;52.618;13.488;2024-02-26T05:30:33;1.80;1.00
13850;DHT22;6995;52.618;13.488;2024-02-26T05:32:58;1.70;1.00
13850;DHT22;6995;52.618;13.488;2024-02-26T05:35:25;1.70;1.00
13850;DHT22;6995;52.618;13.488;2024-02-26T05:37:53;1.70;1.00
13850;DHT22;6995;52.618;13.488;2024-02-26T05:40:19;1.70;1.00
13850;DHT22;6995;52.618;13.488;2024-02-26T05:42:45;1.70;1.00
13850;DHT22;6995;52.618;13.488;2024-02-26T05:45:10;1.80;1.00
13850;DHT22;6995;52.618;13.488;2024-02-26T05:47:36;1.80;1.00
13850;DHT22;6995;52.618;13.488;2024-02-26T05:50:08;1.80;99.90
13850;DHT22;6995;52.618;13.488;2024-02-26T05:52:39;1.80;99.90
13850;DHT22;6995;52.618;13.488;2024-02-26T05:55:05;1.80;99.90
13850;DHT22;6995;52.618;13.488;2024-02-26T05:57:32;1.70;99.90
13850;DHT22;6995;52.618;13.488;2024-02-26T05:59:58;1.70;99.90
13850;DHT22;6995;52.618;13.488;2024-02-26T06:02:31;1.70;99.90
13850;DHT22;6995;52.618;13.488;2024-02-26T06:04:57;1.70;99.90
13850;DHT22;6995;52.618;13.488;2024-02-26T06:07:23;1.70;99.90
13850;DHT22;6995;52.618;13.488;2024-02-26T06:09:49;1.70;99.90
13850;DHT22;6995;52.618;13.488;2024-02-26T06:12:14;1.80;99.90
13850;DHT22;6995;52.618;13.488;2024-02-26T06:14:41;1.80;99.90
13850;DHT22;6995;52.618;13.488;2024-02-26T06:17:07;1.90;99.90
13850;DHT22;6995;52.618;13.488;2024-02-26T06:19:36;1.90;99.90
13850;DHT22;6995;52.618;13.488;2024-02-26T06:22:01;2.00;99.90
13850;DHT22;6995;52.618;13.488;2024-02-26T06:24:27;1.90;99.90
13850;DHT22;6995;52.618;13.488;2024-02-26T06:26:53;1.90;99.90
13850;DHT22;6995;52.618;13.488;2024-02-26T06:29:19;2.00;99.90
13850;DHT22;6995;52.618;13.488;2024-02-26T06:31:45;2.00;99.90
13850;DHT22;6995;52.618;13.488;2024-02-26T06:34:11;2.00;99.90
13850;DHT22;6995;52.618;13.488;2024-02-26T06:36:37;2.10;99.90
13850;DHT22;6995;52.618;13.488;2024-02-26T06:39:02;2.10;99.90
13850;DHT22;6995;52.618;13.488;2024-02-26T06:41:28;2.20;99.90
13850;DHT22;6995;52.618;13.488;2024-02-26T06:43:55;2.30;99.90
13850;DHT22;6995;52.618;13.488;2024-02-26T06:46:21;2.40;99.90
13850;DHT22;6995;52.618;13.488;2024-02-26T06:48:48;2.60;99.90
13850;DHT22;6995;52.618;13.488;2024-02-26T06:51:14;2.70;99.90
13850;DHT22;6995;52.618;13.488;2024-02-26T06:53:40;2.90;99.90
13850;DHT22;6995;52.618;13.488;2024-02-26T06:56:05;3.10;99.90
13850;DHT22;6995;52.618;13.488;2024-02-26T06:58:31;3.30;99.90
13850;DHT22;6995;52.618;13.488;2024-02-26T07:00:57;3.40;81.90
13850;DHT22;6995;52.618;13.488;2024-02-26T07:03:23;3.50;5.10
13850;DHT22;6995;52.618;13.488;2024-02-26T07:05:49;3.60;1.00
13850;DHT22;6995;52.618;13.488;2024-02-26T07:08:15;3.80;1.00
13850;DHT22;6995;52.618;13.488;2024-02-26T07:10:41;3.90;1.00
13850;DHT22;6995;52.618;13.488;2024-02-26T07:13:07;4.10;1.00
13850;DHT22;6995;52.618;13.488;2024-02-26T07:15:33;4.20;1.00
13850;DHT22;6995;52.618;13.488;2024-02-26T07:17:58;4.30;1.00
13850;DHT22;6995;52.618;13.488;2024-02-26T07:20:29;4.30;1.00
13850;DHT22;6995;52.618;13.488;2024-02-26T07:22:54;4.30;1.00
13850;DHT22;6995;52.618;13.488;2024-02-26T07:25:26;4.30;1.00
13850;DHT22;6995;52.618;13.488;2024-02-26T07:27:52;4.20;1.00
13850;DHT22;6995;52.618;13.488;2024-02-26T07:30:18;4.20;1.00
13850;DHT22;6995;52.618;13.488;2024-02-26T07:32:43;4.20;1.00
13850;DHT22;6995;52.618;13.488;2024-02-26T07:35:10;4.30;1.00
13850;DHT22;6995;52.618;13.488;2024-02-26T07:37:35;4.40;1.00
13850;DHT22;6995;52.618;13.488;2024-02-26T07:40:01;4.50;1.00
13850;DHT22;6995;52.618;13.488;2024-02-26T07:42:27;4.60;1.00
13850;DHT22;6995;52.618;13.488;2024-02-26T07:44:53;4.70;1.00
13850;DHT22;6995;52.618;13.488;2024-02-26T07:47:19;4.80;1.00
13850;DHT22;6995;52.618;13.488;2024-02-26T07:49:45;4.90;1.00
13850;DHT22;6995;52.618;13.488;2024-02-26T07:52:10;5.00;1.00
13850;DHT22;6995;52.618;13.488;2024-02-26T07:54:36;5.10;1.00
13850;DHT22;6995;52.618;13.488;2024-02-26T07:57:02;5.20;1.00
13850;DHT22;6995;52.618;13.488;2024-02-26T07:59:31;5.30;1.00
13850;DHT22;6995;52.618;13.488;2024-02-26T08:01:56;5.50;1.00
13850;DHT22;6995;52.618;13.488;2024-02-26T08:04:22;5.60;1.00
13850;DHT22;6995;52.618;13.488;2024-02-26T08:06:47;5.80;1.00
13850;DHT22;6995;52.618;13.488;2024-02-26T08:09:13;5.90;1.00
13850;DHT22;6995;52.618;13.488;2024-02-26T08:11:39;6.00;1.00
13850;DHT22;6995;52.618;13.488;2024-02-26T08:14:05;6.10;1.00
13850;DHT22;6995;52.618;13.488;2024-02-26T08:16:30;6.20;1.00
13850;DHT22;6995;52.618;13.488;2024-02-26T08:18:56;6.30;1.00
13850;DHT22;6995;52.618;13.488;2024-02-26T08:21:21;6.40;1.00
13850;DHT22;6995;52.618;13.488;2024-02-26T08:23:47;6.60;1.00
13850;DHT22;6995;52.618;13.488;2024-02-26T08:26:13;6.60;1.00
13850;DHT22;6995;52.618;13.488;2024-02-26T08:28:38;6.70;1.00
13850;DHT22;6995;52.618;13.488;2024-02-26T08:31:04;6.70;1.00
13850;DHT22;6995;52.618;13.488;2024-02-26T08:33:30;6.90;1.00
13850;DHT22;6995;52.618;13.488;2024-02-26T08:35:56;6.90;1.00
13850;DHT22;6995;52.618;13.488;2024-02-26T08:38:22;7.10;1.00
13850;DHT22;6995;52.618;13.488;2024-02-26T08:40:48;7.20;1.00
13850;DHT22;6995;52.618;13.488;2024-02-26T08:43:14;7.30;1.00
13850;DHT22;6995;52.618;13.488;2024-02-26T08:45:39;7.50;1.00
13850;DHT22;6995;52.618;13.488;2024-02-26T08:48:05;7.60;1.00
13850;DHT22;6995;52.618;13.488;2024-02-26T08:50:31;7.80;1.00
13850;DHT22;6995;52.618;13.488;2024-02-26T08:52:57;7.90;1.00
13850;DHT22;6995;52.618;13.488;2024-02-26T08:55:22;8.10;1.00
13850;DHT22;6995;52.618;13.488;2024-02-26T08:57:48;8.10;1.00
13850;DHT22;6995;52.618;13.488;2024-02-26T09:00:14;8.20;1.00
13850;DHT22;6995;52.618;13.488;2024-02-26T09:02:41;8.20;1.00
13850;DHT22;6995;52.618;13.488;2024-02-26T09:05:09;8.40;1.00
13850;DHT22;6995;52.618;13.488;2024-02-26T09:07:35;8.50;1.00
13850;DHT22;6995;52.618;13.488;2024-02-26T09:10:01;8.60;1.00
13850;DHT22;6995;52.618;13.488;2024-02-26T09:12:27;8.70;1.00
13850;DHT22;6995;52.618;13.488;2024-02-26T09:14:52;8.60;1.00
13850;DHT22;6995;52.618;13.488;2024-02-26T09:17:18;8.70;1.00
13850;DHT22;6995;52.618;13.488;2024-02-26T09:19:44;8.80;1.00
13850;DHT22;6995;52.618;13.488;2024-02-26T09:22:09;8.90;1.00
13850;DHT22;6995;52.618;13.488;2024-02-26T09:24:36;8.90;1.00
13850;DHT22;6995;52.618;13.488;2024-02-26T09:27:02;9.10;1.00
13850;DHT22;6995;52.618;13.488;2024-02-26T09:29:27;9.40;99.90
13850;DHT22;6995;52.618;13.488;2024-02-26T09:31:53;9.40;99.90
13850;DHT22;6995;52.618;13.488;2024-02-26T09:34:18;9.40;99.90
13850;DHT22;6995;52.618;13.488;2024-02-26T09:36:44;9.40;99.90
13850;DHT22;6995;52.618;13.488;2024-02-26T09:39:10;9.40;99.90
13850;DHT22;6995;52.618;13.488;2024-02-26T09:41:37;9.40;99.90
13850;DHT22;6995;52.618;13.488;2024-02-26T09:44:03;9.40;99.90
13850;DHT22;6995;52.618;13.488;2024-02-26T09:46:30;9.40;99.90
13850;DHT22;6995;52.618;13.488;2024-02-26T09:48:56;9.40;99.90
13850;DHT22;6995;52.618;13.488;2024-02-26T09:51:23;9.50;99.90
13850;DHT22;6995;52.618;13.488;2024-02-26T09:53:55;9.50;99.90
13850;DHT22;6995;52.618;13.488;2024-02-26T09:56:21;9.50;99.90
13850;DHT22;6995;52.618;13.488;2024-02-26T09:58:47;9.40;99.90
13850;DHT22;6995;52.618;13.488;2024-02-26T10:01:19;9.30;99.90
13850;DHT22;6995;52.618;13.488;2024-02-26T10:03:49;9.30;99.90
13850;DHT22;6995;52.618;13.488;2024-02-26T10:06:17;9.40;99.90
13850;DHT22;6995;52.618;13.488;2024-02-26T10:08:43;9.50;99.90
13850;DHT22;6995;52.618;13.488;2024-02-26T10:11:10;9.60;99.90
13850;DHT22;6995;52.618;13.488;2024-02-26T10:13:36;9.60;99.90
13850;DHT22;6995;52.618;13.488;2024-02-26T10:16:02;9.70;99.90
13850;DHT22;6995;52.618;13.488;2024-02-26T10:18:52;9.80;99.90
13850;DHT22;6995;52.618;13.488;2024-02-26T10:21:20;9.90;99.90
13850;DHT22;6995;52.618;13.488;2024-02-26T10:23:46;10.00;99.90
13850;DHT22;6995;52.618;13.488;2024-02-26T10:26:13;10.00;99.90
13850;DHT22;6995;52.618;13.488;2024-02-26T10:28:41;10.10;99.90
13850;DHT22;6995;52.618;13.488;2024-02-26T10:31:07;10.10;99.90
13850;DHT22;6995;52.618;13.488;2024-02-26T10:33:34;10.20;99.90
13850;DHT22;6995;52.618;13.488;2024-02-26T10:36:07;10.40;99.90
13850;DHT22;6995;52.618;13.488;2024-02-26T10:38:36;10.60;99.90
13850;DHT22;6995;52.618;13.488;2024-02-26T10:41:03;10.60;99.90
13850;DHT22;6995;52.618;13.488;2024-02-26T10:43:29;10.50;99.90
13850;DHT22;6995;52.618;13.488;2024-02-26T10:45:58;10.40;99.90
13850;DHT22;6995;52.618;13.488;2024-02-26T10:48:24;10.40;99.90
13850;DHT22;6995;52.618;13.488;2024-02-26T10:50:50;10.30;99.90
13850;DHT22;6995;52.618;13.488;2024-02-26T10:53:19;10.40;99.90
13850;DHT22;6995;52.618;13.488;2024-02-26T10:55:49;10.40;99.90
13850;DHT22;6995;52.618;13.488;2024-02-26T10:58:16;10.50;99.90
13850;DHT22;6995;52.618;13.488;2024-02-26T11:00:43;10.50;99.90
13850;DHT22;6995;52.618;13.488;2024-02-26T11:03:09;10.40;99.90
13850;DHT22;6995;52.618;13.488;2024-02-26T11:05:36;10.60;99.90
13850;DHT22;6995;52.618;13.488;2024-02-26T11:08:04;10.60;99.90
13850;DHT22;6995;52.618;13.488;2024-02-26T11:10:30;10.60;99.90
13850;DHT22;6995;52.618;13.488;2024-02-26T11:12:59;10.60;99.90
13850;DHT22;6995;52.618;13.488;2024-02-26T11:15:28;10.70;99.90
13850;DHT22;6995;52.618;13.488;2024-02-26T11:17:55;10.70;99.90
13850;DHT22;6995;52.618;13.488;2024-02-26T11:20:23;11.00;99.90
13850;DHT22;6995;52.618;13.488;2024-02-26T11:22:49;11.10;99.90
13850;DHT22;6995;52.618;13.488;2024-02-26T11:25:14;11.00;99.90
13850;DHT22;6995;52.618;13.488;2024-02-26T11:27:55;11.00;99.90
13850;DHT22;6995;52.618;13.488;2024-02-26T11:30:24;11.10;99.90
13850;DHT22;6995;52.618;13.488;2024-02-26T11:32:52;11.30;99.90
13850;DHT22;6995;52.618;13.488;2024-02-26T11:35:19;11.70;99.90
13850;DHT22;6995;52.618;13.488;2024-02-26T11:37:54;11.90;99.90
13850;DHT22;6995;52.618;13.488;2024-02-26T11:40:20;12.20;99.90
13850;DHT22;6995;52.618;13.488;2024-02-26T11:42:45;12.30;99.90
13850;DHT22;6995;52.618;13.488;2024-02-26T11:45:38;12.30;99.90
13850;DHT22;6995;52.618;13.488;2024-02-26T11:48:19;12.50;99.90
13850;DHT22;6995;52.618;13.488;2024-02-26T11:50:53;12.50;99.90
13850;DHT22;6995;52.618;13.488;2024-02-26T11:53:26;12.60;99.90
13850;DHT22;6995;52.618;13.488;2024-02-26T11:58:43;12.70;99.90
13850;DHT22;6995;52.618;13.488;2024-02-26T12:01:46;12.60;99.90
13850;DHT22;6995;52.618;13.488;2024-02-26T12:04:22;12.60;99.90
13850;DHT22;6995;52.618;13.488;2024-02-26T12:06:56;12.80;99.90
13850;DHT22;6995;52.618;13.488;2024-02-26T12:09:42;13.10;99.90
13850;DHT22;6995;52.618;13.488;2024-02-26T12:12:10;13.30;99.90
13850;DHT22;6995;52.618;13.488;2024-02-26T12:14:40;13.20;99.90
13850;DHT22;6995;52.618;13.488;2024-02-26T12:17:20;13.20;99.90
13850;DHT22;6995;52.618;13.488;2024-02-26T12:19:46;13.30;99.90
13850;DHT22;6995;52.618;13.488;2024-02-26T12:22:13;13.40;99.90
13850;DHT22;6995;52.618;13.488;2024-02-26T12:24:39;13.50;99.90
13850;DHT22;6995;52.618;13.488;2024-02-26T12:27:05;13.50;99.90
13850;DHT22;6995;52.618;13.488;2024-02-26T12:29:31;13.50;99.90
13850;DHT22;6995;52.618;13.488;2024-02-26T12:31:57;13.60;99.90
13850;DHT22;6995;52.618;13.488;2024-02-26T12:34:23;13.60;99.90
13850;DHT22;6995;52.618;13.488;2024-02-26T12:36:49;13.50;99.90
13850;DHT22;6995;52.618;13.488;2024-02-26T12:39:15;13.80;99.90
13850;DHT22;6995;52.618;13.488;2024-02-26T12:41:41;14.00;99.90
13850;DHT22;6995;52.618;13.488;2024-02-26T12:44:08;14.20;99.90
13850;DHT22;6995;52.618;13.488;2024-02-26T12:46:33;14.60;99.90
13850;DHT22;6995;52.618;13.488;2024-02-26T12:48:59;14.90;99.90
13850;DHT22;6995;52.618;13.488;2024-02-26T12:51:26;14.80;99.90
13850;DHT22;6995;52.618;13.488;2024-02-26T12:53:53;14.60;99.90
13850;DHT22;6995;52.618;13.488;2024-02-26T12:56:19;14.50;99.90
13850;DHT22;6995;52.618;13.488;2024-02-26T12:58:45;14.30;99.90
13850;DHT22;6995;52.618;13.488;2024-02-26T13:01:15;14.40;99.90
13850;DHT22;6995;52.618;13.488;2024-02-26T13:03:41;14.40;99.90
13850;DHT22;6995;52.618;13.488;2024-02-26T13:06:07;14.60;99.90
13850;DHT22;6995;52.618;13.488;2024-02-26T13:08:33;14.90;99.90
13850;DHT22;6995;52.618;13.488;2024-02-26T13:11:02;14.80;99.90
13850;DHT22;6995;52.618;13.488;2024-02-26T13:13:28;14.70;99.90
13850;DHT22;6995;52.618;13.488;2024-02-26T13:16:08;14.80;99.90
13850;DHT22;6995;52.618;13.488;2024-02-26T13:18:34;14.70;99.90
13850;DHT22;6995;52.618;13.488;2024-02-26T13:21:12;14.50;99.90
13850;DHT22;6995;52.618;13.488;2024-02-26T13:23:39;14.00;99.90
13850;DHT22;6995;52.618;13.488;2024-02-26T13:26:06;14.00;99.90
13850;DHT22;6995;52.618;13.488;2024-02-26T13:28:32;13.90;99.90
13850;DHT22;6995;52.618;13.488;2024-02-26T13:30:58;13.90;99.90
13850;DHT22;6995;52.618;13.488;2024-02-26T13:33:26;13.90;99.90
13850;DHT22;6995;52.618;13.488;2024-02-26T13:35:53;13.90;99.90
13850;DHT22;6995;52.618;13.488;2024-02-26T13:38:18;13.70;99.90
13850;DHT22;6995;52.618;13.488;2024-02-26T13:40:44;13.60;99.90
13850;DHT22;6995;52.618;13.488;2024-02-26T13:43:10;13.50;99.90
13850;DHT22;6995;52.618;13.488;2024-02-26T13:45:37;13.50;99.90
13850;DHT22;6995;52.618;13.488;2024-02-26T13:48:07;13.50;99.90
13850;DHT22;6995;52.618;13.488;2024-02-26T13:50:33;13.40;99.90
13850;DHT22;6995;52.618;13.488;2024-02-26T13:52:59;13.40;99.90
13850;DHT22;6995;52.618;13.488;2024-02-26T13:55:28;13.30;99.90
13850;DHT22;6995;52.618;13.488;2024-02-26T13:57:56;13.30;99.90
13850;DHT22;6995;52.618;13.488;2024-02-26T14:00:22;13.10;99.90
13850;DHT22;6995;52.618;13.488;2024-02-26T14:02:48;13.00;99.90
13850;DHT22;6995;52.618;13.488;2024-02-26T14:05:14;12.80;99.90
13850;DHT22;6995;52.618;13.488;2024-02-26T14:07:40;12.80;99.90
13850;DHT22;6995;52.618;13.488;2024-02-26T14:10:06;12.80;99.90
13850;DHT22;6995;52.618;13.488;2024-02-26T14:12:32;12.90;99.90
13850;DHT22;6995;52.618;13.488;2024-02-26T14:14:58;12.90;99.90
13850;DHT22;6995;52.618;13.488;2024-02-26T14:17:26;12.90;99.90
13850;DHT22;6995;52.618;13.488;2024-02-26T14:19:52;12.90;99.90
13850;DHT22;6995;52.618;13.488;2024-02-26T14:22:17;12.90;99.90
13850;DHT22;6995;52.618;13.488;2024-02-26T14:24:43;12.90;99.90
13850;DHT22;6995;52.618;13.488;2024-02-26T14:27:10;12.80;99.90
13850;DHT22;6995;52.618;13.488;2024-02-26T14:29:39;12.80;99.90
13850;DHT22;6995;52.618;13.488;2024-02-26T14:32:07;12.70;99.90
13850;DHT22;6995;52.618;13.488;2024-02-26T14:34:33;12.70;99.90
13850;DHT22;6995;52.618;13.488;2024-02-26T14:36:58;12.60;99.90
13850;DHT22;6995;52.618;13.488;2024-02-26T14:39:24;12.50;99.90
13850;DHT22;6995;52.618;13.488;2024-02-26T14:41:49;12.50;99.90
13850;DHT22;6995;52.618;13.488;2024-02-26T14:44:15;12.50;99.90
13850;DHT22;6995;52.618;13.488;2024-02-26T14:46:41;12.50;99.90
13850;DHT22;6995;52.618;13.488;2024-02-26T14:49:07;12.50;99.90
13850;DHT22;6995;52.618;13.488;2024-02-26T14:51:33;12.50;99.90
13850;DHT22;6995;52.618;13.488;2024-02-26T14:53:58;12.40;99.90
13850;DHT22;6995;52.618;13.488;2024-02-26T14:56:26;12.40;99.90
13850;DHT22;6995;52.618;13.488;2024-02-26T14:58:51;12.40;99.90
13850;DHT22;6995;52.618;13.488;2024-02-26T15:01:17;12.30;99.90
13850;DHT22;6995;52.618;13.488;2024-02-26T15:03:42;12.20;99.90
13850;DHT22;6995;52.618;13.488;2024-02-26T15:06:09;12.20;99.90
13850;DHT22;6995;52.618;13.488;2024-02-26T15:08:34;12.10;99.90
13850;DHT22;6995;52.618;13.488;2024-02-26T15:11:03;12.00;99.90
13850;DHT22;6995;52.618;13.488;2024-02-26T15:13:29;12.00;99.90
13850;DHT22;6995;52.618;13.488;2024-02-26T15:15:54;11.90;99.90
13850;DHT22;6995;52.618;13.488;2024-02-26T15:18:20;11.80;99.90
13850;DHT22;6995;52.618;13.488;2024-02-26T15:20:46;11.70;99.90
13850;DHT22;6995;52.618;13.488;2024-02-26T15:23:12;11.70;99.90
13850;DHT22;6995;52.618;13.488;2024-02-26T15:25:38;11.70;99.90
13850;DHT22;6995;52.618;13.488;2024-02-26T15:28:04;11.60;99.90
13850;DHT22;6995;52.618;13.488;2024-02-26T15:30:32;11.70;99.90
13850;DHT22;6995;52.618;13.488;2024-02-26T15:32:58;11.70;99.90
13850;DHT22;6995;52.618;13.488;2024-02-26T15:35:24;11.60;99.90
13850;DHT22;6995;52.618;13.488;2024-02-26T15:37:49;11.60;99.90
13850;DHT22;6995;52.618;13.488;2024-02-26T15:40:15;11.60;99.90
13850;DHT22;6995;52.618;13.488;2024-02-26T15:42:41;11.50;99.90
13850;DHT22;6995;52.618;13.488;2024-02-26T15:45:07;11.50;99.90
13850;DHT22;6995;52.618;13.488;2024-02-26T15:47:33;11.40;99.90